createdAt,value
2022-12-11T00:01:24.899Z,57.45
2022-12-11T00:03:51.746Z,49.10
2022-12-11T00:06:21.133Z,54.25
2022-12-11T00:08:50.655Z,62.73
2022-12-11T00:11:17.390Z,59.13
2022-12-11T00:13:44.204Z,62.15
2022-12-11T00:16:11.115Z,68.03
2022-12-11T00:18:38.076Z,66.65
2022-12-11T00:21:06.660Z,66.77
2022-12-11T00:23:35.633Z,62.13
2022-12-11T00:26:10.493Z,63.35
2022-12-11T00:28:36.969Z,50.67
2022-12-11T00:31:05.719Z,62.13
2022-12-11T00:33:32.200Z,66.40
2022-12-11T00:35:58.745Z,60.35
2022-12-11T00:38:25.211Z,57.42
2022-12-11T00:40:52.006Z,68.90
2022-12-11T00:43:18.453Z,62.78
2022-12-11T00:45:46.858Z,68.87
2022-12-11T00:48:13.556Z,61.10
2022-12-11T00:50:40.808Z,67.43
2022-12-11T00:53:08.066Z,58.58
2022-12-11T00:55:40.034Z,58.15
2022-12-11T00:58:07.134Z,62.40
2022-12-11T01:00:34.142Z,64.03
2022-12-11T01:03:01.147Z,70.22
2022-12-11T01:05:27.901Z,72.85
2022-12-11T01:07:54.390Z,59.00
2022-12-11T01:10:23.997Z,61.77
2022-12-11T01:12:55.895Z,64.40
2022-12-11T01:15:25.220Z,79.00
2022-12-11T01:17:52.506Z,60.67
2022-12-11T01:20:20.932Z,53.30
2022-12-11T01:22:47.503Z,58.53
2022-12-11T01:25:14.428Z,67.68
2022-12-11T01:27:40.877Z,55.08
2022-12-11T01:30:08.429Z,76.43
2022-12-11T01:32:35.890Z,84.30
2022-12-11T01:35:08.224Z,67.57
2022-12-11T01:37:35.109Z,66.15
2022-12-11T01:40:02.213Z,73.03
2022-12-11T01:42:29.624Z,70.20
2022-12-11T01:45:23.870Z,59.53
2022-12-11T01:47:59.224Z,64.57
2022-12-11T01:50:26.267Z,54.90
2022-12-11T01:52:53.302Z,67.30
2022-12-11T01:55:20.646Z,63.55
2022-12-11T01:57:50.560Z,63.72
2022-12-11T02:00:17.569Z,64.27
2022-12-11T02:02:44.414Z,64.28
2022-12-11T02:05:11.882Z,67.63
2022-12-11T02:07:52.445Z,58.58
2022-12-11T02:10:19.338Z,58.90
2022-12-11T02:12:57.964Z,47.80
2022-12-11T02:15:40.261Z,63.78
2022-12-11T02:18:12.595Z,79.15
2022-12-11T02:21:06.611Z,71.70
2022-12-11T02:23:58.360Z,70.90
2022-12-11T02:26:34.634Z,69.43
2022-12-11T02:29:04.198Z,67.40
2022-12-11T02:31:46.883Z,52.95
2022-12-11T02:34:28.705Z,61.55
2022-12-11T02:37:00.135Z,69.15
2022-12-11T02:39:28.404Z,67.47
2022-12-11T02:41:56.426Z,58.50
2022-12-11T02:44:27.042Z,67.95
2022-12-11T02:46:54.944Z,64.70
2022-12-11T02:49:23.276Z,60.35
2022-12-11T02:51:52.318Z,64.63
2022-12-11T02:54:25.289Z,62.53
2022-12-11T02:56:57.713Z,43.25
2022-12-11T02:59:32.891Z,61.25
2022-12-11T03:01:59.528Z,54.42
2022-12-11T03:04:26.246Z,63.70
2022-12-11T03:06:59.944Z,65.68
2022-12-11T03:09:28.414Z,65.55
2022-12-11T03:11:55.002Z,60.42
2022-12-11T03:14:21.488Z,55.40
2022-12-11T03:17:05.708Z,54.87
2022-12-11T03:19:37.195Z,54.60
2022-12-11T03:22:11.018Z,54.55
2022-12-11T03:24:59.617Z,50.05
2022-12-11T03:27:42.448Z,45.13
2022-12-11T03:30:14.239Z,57.60
2022-12-11T03:32:49.291Z,55.75
2022-12-11T03:35:33.906Z,61.20
2022-12-11T03:38:11.822Z,54.63
2022-12-11T03:40:42.199Z,57.58
2022-12-11T03:43:10.891Z,41.77
2022-12-11T03:45:39.122Z,48.45
2022-12-11T03:48:07.272Z,47.22
2022-12-11T03:50:35.376Z,59.75
2022-12-11T03:53:03.790Z,46.50
2022-12-11T03:55:32.823Z,49.80
2022-12-11T03:57:59.361Z,44.67
2022-12-11T04:00:25.854Z,53.78
2022-12-11T04:03:13.527Z,51.13
2022-12-11T04:05:53.337Z,34.80
2022-12-11T04:08:21.157Z,41.10
2022-12-11T04:10:47.984Z,43.00
2022-12-11T04:13:14.474Z,44.38
2022-12-11T04:15:41.271Z,45.50
2022-12-11T04:18:26.639Z,45.70
2022-12-11T04:21:13.356Z,40.97
2022-12-11T04:23:58.676Z,29.75
2022-12-11T04:26:25.416Z,32.75
2022-12-11T04:28:51.917Z,35.60
2022-12-11T04:31:21.583Z,40.85
2022-12-11T04:33:48.121Z,33.10
2022-12-11T04:36:15.175Z,32.97
2022-12-11T04:38:41.669Z,40.85
2022-12-11T04:41:11.284Z,39.58
2022-12-11T04:43:38.018Z,39.55
2022-12-11T04:46:09.994Z,36.10
2022-12-11T04:48:37.485Z,42.72
2022-12-11T04:51:04.421Z,41.40
2022-12-11T04:53:31.661Z,36.55
2022-12-11T04:55:58.148Z,35.92
2022-12-11T04:58:26.066Z,30.00
2022-12-11T05:00:53.042Z,32.22
2022-12-11T05:03:19.756Z,37.08
2022-12-11T05:05:51.184Z,18.23
2022-12-11T05:08:18.998Z,29.17
2022-12-11T05:10:50.066Z,38.63
2022-12-11T05:13:16.728Z,32.05
2022-12-11T05:15:43.173Z,29.02
2022-12-11T05:18:09.699Z,33.55
2022-12-11T05:20:36.223Z,38.78
2022-12-11T05:23:02.684Z,34.67
2022-12-11T05:25:29.139Z,33.83
2022-12-11T05:27:55.584Z,38.53
2022-12-11T05:30:22.029Z,39.30
2022-12-11T05:32:48.491Z,31.00
2022-12-11T05:35:15.120Z,35.77
2022-12-11T05:37:41.673Z,36.30
2022-12-11T05:40:08.937Z,33.88
2022-12-11T05:42:35.388Z,32.92
2022-12-11T05:45:01.816Z,30.95
2022-12-11T05:47:28.337Z,37.40
2022-12-11T05:49:54.740Z,33.35
2022-12-11T05:52:21.757Z,33.30
2022-12-11T05:54:50.434Z,36.30
2022-12-11T05:57:17.227Z,38.78
2022-12-11T05:59:43.688Z,39.93
2022-12-11T06:02:10.305Z,40.00
2022-12-11T06:04:36.781Z,37.15
2022-12-11T06:07:03.413Z,34.33
2022-12-11T06:09:30.000Z,36.15
2022-12-11T06:11:56.428Z,31.67
2022-12-11T06:14:22.848Z,37.22
2022-12-11T06:16:50.115Z,37.55
2022-12-11T06:19:18.431Z,37.17
2022-12-11T06:21:45.872Z,39.30
2022-12-11T06:24:12.520Z,30.07
2022-12-11T06:26:39.190Z,41.75
2022-12-11T06:29:09.186Z,39.70
2022-12-11T06:31:39.215Z,32.85
2022-12-11T06:34:06.049Z,41.30
2022-12-11T06:36:32.547Z,27.07
2022-12-11T06:38:59.070Z,38.72
2022-12-11T06:41:25.811Z,33.92
2022-12-11T06:43:52.493Z,39.90
2022-12-11T06:46:19.914Z,29.98
2022-12-11T06:48:47.603Z,29.63
2022-12-11T06:51:19.669Z,32.00
2022-12-11T06:53:56.903Z,27.58
2022-12-11T06:56:24.369Z,34.38
2022-12-11T06:58:51.950Z,33.35
2022-12-11T07:01:21.937Z,33.57
2022-12-11T07:03:49.186Z,35.10
2022-12-11T07:06:16.236Z,34.08
2022-12-11T07:08:43.590Z,36.75
2022-12-11T07:11:13.356Z,35.30
2022-12-11T07:13:40.308Z,35.47
2022-12-11T07:16:10.796Z,42.28
2022-12-11T07:18:42.098Z,41.40
2022-12-11T07:21:11.837Z,48.33
2022-12-11T07:23:38.330Z,26.45
2022-12-11T07:26:06.303Z,33.40
2022-12-11T07:28:33.229Z,38.85
2022-12-11T07:30:59.868Z,41.58
2022-12-11T07:33:26.430Z,36.47
2022-12-11T07:35:52.882Z,40.53
2022-12-11T07:38:19.308Z,37.90
2022-12-11T07:40:45.795Z,41.55
2022-12-11T07:43:12.201Z,38.42
2022-12-11T07:45:39.275Z,37.33
2022-12-11T07:48:06.267Z,34.17
2022-12-11T07:50:36.605Z,33.67
2022-12-11T07:53:06.112Z,38.85
2022-12-11T07:55:32.600Z,28.73
2022-12-11T07:57:59.036Z,34.47
2022-12-11T08:00:25.496Z,36.22
2022-12-11T08:02:52.019Z,29.13
2022-12-11T08:05:18.468Z,29.00
2022-12-11T08:07:44.915Z,25.67
2022-12-11T08:10:11.394Z,19.15
2022-12-11T08:12:38.480Z,28.20
2022-12-11T08:15:05.444Z,31.20
2022-12-11T08:17:36.631Z,29.45
2022-12-11T08:20:06.611Z,26.77
2022-12-11T08:22:34.171Z,23.00
2022-12-11T08:25:00.595Z,38.50
2022-12-11T08:27:27.014Z,27.13
2022-12-11T08:29:53.477Z,26.60
2022-12-11T08:32:19.936Z,34.95
2022-12-11T08:34:46.336Z,26.70
2022-12-11T08:37:13.637Z,31.05
2022-12-11T08:39:40.084Z,33.53
2022-12-11T08:42:07.106Z,26.80
2022-12-11T08:44:33.579Z,29.58
2022-12-11T08:47:00.006Z,29.17
2022-12-11T08:49:29.851Z,32.65
2022-12-11T08:51:59.228Z,29.53
2022-12-11T08:54:25.680Z,34.65
2022-12-11T08:56:56.414Z,30.55
2022-12-11T08:59:25.614Z,30.70
2022-12-11T09:01:52.461Z,32.88
2022-12-11T09:04:18.943Z,38.47
2022-12-11T09:06:45.405Z,33.70
2022-12-11T09:09:12.649Z,32.63
2022-12-11T09:11:39.075Z,32.38
2022-12-11T09:14:07.936Z,33.53
2022-12-11T09:16:37.777Z,33.40
2022-12-11T09:19:06.172Z,28.38
2022-12-11T09:21:32.784Z,28.98
2022-12-11T09:24:01.388Z,31.77
2022-12-11T09:26:30.036Z,29.77
2022-12-11T09:28:56.773Z,32.37
2022-12-11T09:31:28.897Z,28.10
2022-12-11T09:33:57.849Z,31.83
2022-12-11T09:36:24.485Z,28.45
2022-12-11T09:38:51.432Z,29.00
2022-12-11T09:41:20.963Z,28.50
2022-12-11T09:43:51.785Z,30.02
2022-12-11T09:46:21.617Z,33.28
2022-12-11T09:48:53.489Z,29.65
2022-12-11T09:51:30.468Z,29.75
2022-12-11T09:54:01.723Z,29.90
2022-12-11T09:56:57.731Z,26.75
2022-12-11T09:59:38.092Z,28.52
2022-12-11T10:02:16.841Z,26.17
2022-12-11T10:04:59.186Z,25.60
2022-12-11T10:07:33.919Z,27.43
2022-12-11T10:10:38.929Z,29.77
2022-12-11T10:13:34.819Z,34.65
2022-12-11T10:16:07.461Z,26.95
2022-12-11T10:18:34.286Z,23.85
2022-12-11T10:21:02.497Z,26.77
2022-12-11T10:23:42.017Z,25.10
2022-12-11T10:26:17.602Z,20.90
2022-12-11T10:28:44.489Z,23.77
2022-12-11T10:31:16.087Z,27.90
2022-12-11T10:34:02.616Z,30.47
2022-12-11T10:36:32.372Z,23.80
2022-12-11T10:38:59.258Z,23.85
2022-12-11T10:41:49.073Z,21.95
2022-12-11T10:44:27.348Z,26.00
2022-12-11T10:47:10.849Z,26.37
2022-12-11T10:49:42.633Z,22.90
2022-12-11T10:52:38.165Z,25.38
2022-12-11T10:55:08.023Z,26.42
2022-12-11T10:57:37.049Z,25.38
2022-12-11T11:00:08.714Z,22.07
2022-12-11T11:02:38.381Z,23.77
2022-12-11T11:05:17.972Z,22.75
2022-12-11T11:07:44.560Z,27.15
2022-12-11T11:10:11.035Z,26.52
2022-12-11T11:12:42.123Z,26.10
2022-12-11T11:15:17.585Z,27.50
2022-12-11T11:17:54.616Z,29.15
2022-12-11T11:20:26.247Z,21.65
2022-12-11T11:23:00.038Z,27.52
2022-12-11T11:25:29.405Z,20.30
2022-12-11T11:28:34.319Z,25.58
2022-12-11T11:31:08.879Z,25.70
2022-12-11T11:33:37.828Z,22.60
2022-12-11T11:36:07.015Z,21.52
2022-12-11T11:38:52.177Z,24.80
2022-12-11T11:41:31.735Z,24.50
2022-12-11T11:44:02.166Z,25.02
2022-12-11T11:46:49.177Z,26.63
2022-12-11T11:49:15.567Z,29.52
2022-12-11T11:51:52.604Z,21.47
2022-12-11T11:54:34.513Z,25.20
2022-12-11T11:57:33.326Z,25.27
2022-12-11T12:00:10.755Z,27.63
2022-12-11T12:02:37.801Z,28.95
2022-12-11T12:05:04.851Z,28.93
2022-12-11T12:07:50.695Z,24.10
2022-12-11T12:10:21.892Z,28.25
2022-12-11T12:13:03.293Z,25.02
2022-12-11T12:15:53.994Z,22.50
2022-12-11T12:18:38.847Z,25.43
2022-12-11T12:21:18.230Z,29.85
2022-12-11T12:23:57.132Z,26.90
2022-12-11T12:26:33.645Z,29.20
2022-12-11T12:29:17.963Z,31.10
2022-12-11T12:32:02.909Z,24.80
2022-12-11T12:34:44.441Z,27.05
2022-12-11T12:37:45.181Z,34.17
2022-12-11T12:40:17.875Z,28.77
2022-12-11T12:43:05.665Z,31.77
2022-12-11T12:45:35.201Z,30.50
2022-12-11T12:48:02.098Z,33.65
2022-12-11T12:50:43.573Z,30.75
2022-12-11T12:53:18.237Z,27.38
2022-12-11T12:55:46.550Z,28.83
2022-12-11T12:58:40.155Z,30.63
2022-12-11T13:01:15.476Z,31.48
2022-12-11T13:04:04.049Z,33.22
2022-12-11T13:06:34.956Z,34.53
2022-12-11T13:09:17.769Z,41.28
2022-12-11T13:11:45.717Z,36.67
2022-12-11T13:14:15.492Z,28.20
2022-12-11T13:16:45.247Z,33.85
2022-12-11T13:19:24.114Z,34.47
2022-12-11T13:22:00.032Z,40.90
2022-12-11T13:24:28.537Z,34.13
2022-12-11T13:26:55.689Z,40.42
2022-12-11T13:29:40.432Z,39.35
2022-12-11T13:32:09.878Z,38.28
2022-12-11T13:34:39.264Z,36.38
2022-12-11T13:37:07.454Z,35.97
2022-12-11T13:39:39.689Z,35.08
2022-12-11T13:42:20.292Z,34.35
2022-12-11T13:44:48.636Z,37.70
2022-12-11T13:47:18.656Z,35.90
2022-12-11T13:49:50.027Z,42.10
2022-12-11T13:52:23.049Z,34.85
2022-12-11T13:54:51.967Z,33.10
2022-12-11T13:57:23.163Z,34.72
2022-12-11T13:59:53.264Z,36.42
2022-12-11T14:02:25.577Z,39.57
2022-12-11T14:04:57.328Z,35.38
2022-12-11T14:07:28.776Z,34.40
2022-12-11T14:10:01.551Z,34.50
2022-12-11T14:12:30.349Z,37.33
2022-12-11T14:14:59.820Z,31.30
2022-12-11T14:17:29.710Z,30.45
2022-12-11T14:20:00.507Z,30.17
2022-12-11T14:22:29.104Z,36.10
2022-12-11T14:25:02.736Z,42.13
2022-12-11T14:27:29.716Z,38.17
2022-12-11T14:29:56.627Z,32.60
2022-12-11T14:32:37.024Z,39.47
2022-12-11T14:35:07.341Z,28.98
2022-12-11T14:37:37.099Z,32.13
2022-12-11T14:40:15.792Z,33.57
2022-12-11T14:42:51.758Z,34.90
2022-12-11T14:45:28.982Z,29.67
2022-12-11T14:47:58.320Z,33.63
2022-12-11T14:50:43.781Z,30.55
2022-12-11T14:53:15.465Z,33.17
2022-12-11T14:55:42.344Z,32.13
2022-12-11T14:58:22.350Z,29.17
2022-12-11T15:01:05.561Z,33.35
2022-12-11T15:03:34.817Z,33.33
2022-12-11T15:06:02.922Z,34.60
2022-12-11T15:08:35.197Z,33.75
2022-12-11T15:11:12.139Z,36.95
2022-12-11T15:14:00.223Z,32.88
2022-12-11T15:16:31.290Z,33.15
2022-12-11T15:18:58.893Z,34.67
2022-12-11T15:21:30.960Z,34.33
2022-12-11T15:23:59.530Z,32.83
2022-12-11T15:26:39.565Z,33.17
2022-12-11T15:29:36.898Z,39.47
2022-12-11T15:32:09.272Z,30.93
2022-12-11T15:34:42.370Z,32.30
2022-12-11T15:37:22.371Z,31.02
2022-12-11T15:39:48.929Z,36.33
2022-12-11T15:42:20.898Z,32.63
2022-12-11T15:44:47.560Z,29.87
2022-12-11T15:47:15.576Z,33.45
2022-12-11T15:49:42.375Z,32.75
2022-12-11T15:52:08.813Z,24.77
2022-12-11T15:54:35.280Z,33.08
2022-12-11T15:57:05.296Z,29.27
2022-12-11T15:59:33.057Z,30.00
2022-12-11T16:01:59.647Z,48.92
2022-12-11T16:04:26.332Z,37.40
2022-12-11T16:06:53.188Z,35.20
2022-12-11T16:09:19.642Z,28.07
2022-12-11T16:11:46.060Z,36.50
2022-12-11T16:14:12.501Z,31.15
2022-12-11T16:16:38.966Z,29.95
2022-12-11T16:19:05.439Z,31.52
2022-12-11T16:21:31.959Z,29.87
2022-12-11T16:23:58.424Z,77.05
2022-12-11T16:26:25.419Z,43.10
2022-12-11T16:28:51.836Z,38.97
2022-12-11T16:31:18.356Z,50.28
2022-12-11T16:33:44.914Z,50.13
2022-12-11T16:36:17.612Z,40.13
2022-12-11T16:38:51.413Z,36.13
2022-12-11T16:41:19.964Z,31.67
2022-12-11T16:43:46.379Z,29.33
2022-12-11T16:46:12.885Z,31.47
2022-12-11T16:48:39.450Z,32.00
2022-12-11T16:51:05.993Z,43.03
2022-12-11T16:53:32.467Z,39.67
2022-12-11T16:55:58.925Z,30.88
2022-12-11T16:58:25.386Z,25.93
2022-12-11T17:00:51.879Z,29.00
2022-12-11T17:03:19.488Z,26.77
2022-12-11T17:05:46.012Z,23.98
2022-12-11T17:08:12.546Z,29.80
2022-12-11T17:10:41.472Z,27.00
2022-12-11T17:13:08.065Z,24.08
2022-12-11T17:15:34.581Z,25.38
2022-12-11T17:18:01.067Z,27.98
2022-12-11T17:20:27.544Z,22.65
2022-12-11T17:22:54.040Z,26.07
2022-12-11T17:25:22.431Z,19.52
2022-12-11T17:27:49.555Z,25.00
2022-12-11T17:30:16.211Z,23.23
2022-12-11T17:32:42.724Z,23.20
2022-12-11T17:35:09.902Z,21.67
2022-12-11T17:37:36.498Z,19.65
2022-12-11T17:40:03.407Z,25.98
2022-12-11T17:42:29.854Z,25.80
2022-12-11T17:44:56.321Z,23.92
2022-12-11T17:47:23.684Z,21.07
2022-12-11T17:49:50.147Z,19.35
2022-12-11T17:52:16.613Z,19.50
2022-12-11T17:54:43.080Z,20.08
2022-12-11T17:57:09.784Z,19.30
2022-12-11T17:59:36.290Z,24.67
2022-12-11T18:02:02.876Z,22.15
2022-12-11T18:04:29.479Z,20.38
2022-12-11T18:06:56.053Z,23.50
2022-12-11T18:09:22.478Z,24.15
2022-12-11T18:11:48.977Z,15.63
2022-12-11T18:14:17.586Z,23.17
2022-12-11T18:16:44.294Z,22.98
2022-12-11T18:19:10.873Z,21.02
2022-12-11T18:21:41.371Z,21.92
2022-12-11T18:24:08.928Z,20.83
2022-12-11T18:26:37.424Z,19.67
2022-12-11T18:29:04.452Z,22.58
2022-12-11T18:31:31.031Z,20.42
2022-12-11T18:33:57.983Z,19.88
2022-12-11T18:36:24.429Z,20.73
2022-12-11T18:38:51.106Z,25.35
2022-12-11T18:41:18.948Z,20.73
2022-12-11T18:43:45.923Z,24.80
2022-12-11T18:46:15.691Z,23.35
2022-12-11T18:48:43.285Z,18.87
2022-12-11T18:51:13.123Z,22.42
2022-12-11T18:53:39.906Z,20.40
2022-12-11T18:56:08.715Z,21.67
2022-12-11T18:58:35.178Z,23.63
2022-12-11T19:01:09.953Z,23.33
2022-12-11T19:03:37.187Z,20.45
2022-12-11T19:06:12.625Z,23.05
2022-12-11T19:08:39.682Z,22.33
2022-12-11T19:11:07.073Z,22.75
2022-12-11T19:13:34.193Z,20.57
2022-12-11T19:16:00.955Z,19.38
2022-12-11T19:18:27.857Z,20.13
2022-12-11T19:21:03.095Z,20.90
2022-12-11T19:23:34.752Z,19.83
2022-12-11T19:26:01.799Z,18.33
2022-12-11T19:28:30.042Z,19.98
2022-12-11T19:30:56.993Z,20.83
2022-12-11T19:33:23.653Z,22.35
2022-12-11T19:35:50.107Z,19.50
2022-12-11T19:38:16.638Z,32.03
2022-12-11T19:40:44.723Z,20.40
2022-12-11T19:43:11.721Z,25.60
2022-12-11T19:45:38.476Z,21.02
2022-12-11T19:48:05.583Z,20.33
2022-12-11T19:50:32.079Z,22.17
2022-12-11T19:52:58.539Z,22.90
2022-12-11T19:55:25.020Z,19.38
2022-12-11T19:57:51.498Z,21.48
2022-12-11T20:00:18.849Z,21.85
2022-12-11T20:02:45.345Z,20.57
2022-12-11T20:05:12.139Z,19.85
2022-12-11T20:07:38.902Z,25.08
2022-12-11T20:10:06.111Z,25.45
2022-12-11T20:12:32.660Z,28.67
2022-12-11T20:14:59.131Z,26.00
2022-12-11T20:17:25.679Z,27.38
2022-12-11T20:19:52.389Z,28.15
2022-12-11T20:22:18.854Z,30.98
2022-12-11T20:24:45.666Z,28.73
2022-12-11T20:27:12.564Z,23.17
2022-12-11T20:29:39.412Z,24.88
2022-12-11T20:32:07.320Z,25.08
2022-12-11T20:34:33.962Z,26.52
2022-12-11T20:37:00.471Z,25.17
2022-12-11T20:39:27.248Z,30.00
2022-12-11T20:41:53.693Z,31.67
2022-12-11T20:44:20.244Z,28.67
2022-12-11T20:46:46.704Z,27.73
2022-12-11T20:49:13.308Z,30.80
2022-12-11T20:51:40.825Z,29.50
2022-12-11T20:54:07.356Z,28.83
2022-12-11T20:56:33.990Z,33.78
2022-12-11T20:59:00.816Z,30.63
2022-12-11T21:01:30.402Z,31.02
2022-12-11T21:03:57.870Z,28.57
2022-12-11T21:06:28.401Z,29.40
2022-12-11T21:08:54.905Z,28.70
2022-12-11T21:11:21.694Z,28.38
2022-12-11T21:13:48.214Z,27.52
2022-12-11T21:16:14.740Z,30.77
2022-12-11T21:18:43.420Z,24.80
2022-12-11T21:21:10.128Z,27.02
2022-12-11T21:23:36.629Z,24.70
2022-12-11T21:26:03.356Z,27.65
2022-12-11T21:28:35.234Z,23.87
2022-12-11T21:31:04.803Z,22.70
2022-12-11T21:33:31.384Z,26.98
2022-12-11T21:35:59.450Z,22.80
2022-12-11T21:38:26.144Z,24.25
2022-12-11T21:40:53.509Z,27.20
2022-12-11T21:43:20.208Z,20.58
2022-12-11T21:46:02.453Z,25.33
2022-12-11T21:48:29.239Z,21.60
2022-12-11T21:50:56.088Z,21.65
2022-12-11T21:53:22.547Z,22.00
2022-12-11T21:55:48.973Z,24.25
2022-12-11T21:58:15.655Z,22.92
2022-12-11T22:00:42.283Z,23.65
2022-12-11T22:03:08.841Z,23.58
2022-12-11T22:05:35.313Z,22.70
2022-12-11T22:08:02.249Z,25.45
2022-12-11T22:10:29.242Z,28.33
2022-12-11T22:12:55.784Z,26.98
2022-12-11T22:15:22.353Z,25.73
2022-12-11T22:17:48.863Z,25.40
2022-12-11T22:20:15.417Z,27.35
2022-12-11T22:22:42.233Z,24.92
2022-12-11T22:25:09.643Z,26.60
2022-12-11T22:27:36.480Z,28.02
2022-12-11T22:30:03.749Z,28.50
2022-12-11T22:32:30.305Z,23.65
2022-12-11T22:34:57.727Z,25.45
2022-12-11T22:37:25.309Z,23.02
2022-12-11T22:39:51.861Z,23.05
2022-12-11T22:42:18.398Z,25.57
2022-12-11T22:44:44.956Z,25.98
2022-12-11T22:47:11.570Z,26.48
2022-12-11T22:49:38.033Z,26.35
2022-12-11T22:52:04.869Z,27.52
2022-12-11T22:54:31.376Z,24.27
2022-12-11T22:56:57.855Z,26.02
2022-12-11T22:59:24.373Z,25.02
2022-12-11T23:01:50.888Z,23.25
2022-12-11T23:04:17.387Z,25.95
2022-12-11T23:06:43.839Z,24.60
2022-12-11T23:09:10.917Z,24.90
2022-12-11T23:11:38.424Z,28.67
2022-12-11T23:14:07.746Z,26.35
2022-12-11T23:16:34.522Z,28.08
2022-12-11T23:19:01.120Z,31.50
2022-12-11T23:21:28.589Z,28.40
2022-12-11T23:23:56.261Z,29.58
2022-12-11T23:26:23.158Z,46.58
2022-12-11T23:28:50.206Z,48.03
2022-12-11T23:31:17.883Z,51.13
2022-12-11T23:33:44.959Z,33.78
2022-12-11T23:36:12.266Z,30.00
2022-12-11T23:38:40.497Z,39.42
2022-12-11T23:41:08.472Z,37.47
2022-12-11T23:43:36.232Z,32.00
2022-12-11T23:46:13.782Z,30.38
2022-12-11T23:48:40.945Z,28.58
2022-12-11T23:51:09.138Z,25.95
2022-12-11T23:53:35.725Z,25.38
2022-12-11T23:56:08.492Z,25.63
2022-12-11T23:58:37.006Z,24.83
